Quart de Poblet, Spain
Current Conditions -  °F | °C
As of 3:30 PM on Thursday 27 Nov 2014 (Local Time) from LEVC Reporting Station
Scattered Clouds Scattered Clouds  
Wind Chill: 63°   Ceiling: Unl
Heat Index: 63°   Visibility: 6mi
Dew Point: 55°   Wind: 7mph
Humidity: 77%   Direction: 60°ENE
Pressure: 29.56"   Gusts: NA
Location:  39.48°N, 0.44°W
Report Text: LEVC 271430Z 06006KT 040V100 9999 SCT020 SCT025 17/13 Q1001 NOSIG
Loading
Personal Weather Stations






























Interactive Weather Map New forecast layout! Learn more

10-Day Weather Forecast

Advertisements
Track Severe Weather on mobile